sensor_id;sensor_type;location;lat;lon;timestamp;P1;P2;P0
84650;PMS5003;74879;52.402;16.904;2024-01-30T00:10:11;72.62394991103564;62.249099923744836;34.89722268452362
84650;PMS5003;74879;52.402;16.904;2024-01-30T00:30:10;64.19967095376039;62.31144533747332;26.435158628018986
84650;PMS5003;74879;52.402;16.904;2024-01-30T00:50:10;74.9884992527773;64.54706264796022;33.222752833508935
84650;PMS5003;74879;52.402;16.904;2024-01-30T01:05:10;69.89916178155892;62.342495643012;32.115831088824365
84650;PMS5003;74879;52.402;16.904;2024-01-30T01:20:11;79.5345584661608;74.80035855746075;47.341999087000474
84650;PMS5003;74879;52.402;16.904;2024-01-30T01:35:11;55.81783461107495;52.03357463744275;28.381949802241497
84650;PMS5003;74879;52.402;16.904;2024-01-30T01:50:11;68.23912272289924;51.17934204217443;18.007546274098413
84650;PMS5003;74879;52.402;16.904;2024-01-30T02:05:11;54.09692196616833;52.19878435332032;31.31927061199219
84650;PMS5003;74879;52.402;16.904;2024-01-30T02:20:11;53.19053800010424;47.49155178580735;26.59526900005212
84650;PMS5003;74879;52.402;16.904;2024-01-30T02:35:11;58.870644822426975;44.62774688151722;23.738163234849587
84650;PMS5003;74879;52.402;16.904;2024-01-30T02:50:11;71.85955889570683;51.05810763642327;25.529053818211636
84650;PMS5003;74879;52.402;16.904;2024-01-30T03:05:11;51.926204447894435;41.540963558315546;21.71459458730131
84650;PMS5003;74879;52.402;16.904;2024-01-30T03:20:11;49.17111657672565;39.715132619663024;19.857566309831512
84650;PMS5003;74879;52.402;16.904;2024-01-30T03:35:11;46.35337823861012;36.89350512868969;18.919746219840867
84650;PMS5003;74879;52.402;16.904;2024-01-30T03:50:11;47.353591510394814;43.56530418956323;21.782652094781614
84650;PMS5003;74879;52.402;16.904;2024-01-30T04:05:10;51.15438257830665;46.41786567290789;19.893371002674808
84650;PMS5003;74879;52.402;16.904;2024-01-30T04:20:10;42.51681163614849;42.51681163614849;22.67563287261253
84650;PMS5003;74879;52.402;16.904;2024-01-30T04:35:11;37.8363838028504;35.94456461270788;15.13455352114016
84650;PMS5003;74879;52.402;16.904;2024-01-30T04:50:11;46.349570158491744;34.99865501763662;17.02637271128268
84650;PMS5003;74879;52.402;16.904;2024-01-30T05:05:10;39.74450927762378;35.959317917850086;16.087063279038194
84650;PMS5003;74879;52.402;16.904;2024-01-30T05:20:10;39.786742005349616;30.31370819455209;17.998764240515303
84650;PMS5003;74879;52.402;16.904;2024-01-30T05:35:10;50.02131962933448;34.9205438921769;17.932171187874623
84650;PMS5003;74879;52.402;16.904;2024-01-30T05:50:10;36.79278733257787;30.188953708781842;18.868096067988652
84650;PMS5003;74879;52.402;16.904;2024-01-30T06:05:10;43.36756331275689;41.48201708176746;16.96991607890487
84650;PMS5003;74879;52.402;16.904;2024-01-30T06:20:10;42.499196292095355;36.832636786482645;22.66623802245086
84650;PMS5003;74879;52.402;16.904;2024-01-30T06:35:10;44.42847291297505;40.64732628208356;20.796306469903218
84650;PMS5003;74879;52.402;16.904;2024-01-30T06:50:10;59.449390242634166;45.29477351819746;22.64738675909873
84650;PMS5003;74879;52.402;16.904;2024-01-30T07:05:10;47.20956517548657;42.48860865793791;21.71639998072382
84650;PMS5003;74879;52.402;16.904;2024-01-30T07:20:10;39.74125082979177;39.74125082979177;20.81684567274807
84650;PMS5003;74879;52.402;16.904;2024-01-30T07:35:10;52.2532493770443;47.502953979131185;21.851358830400343
84650;PMS5003;74879;52.402;16.904;2024-01-30T07:50:10;47.962135584811755;42.20667931463434;20.144096945620937
84650;PMS5003;74879;52.402;16.904;2024-01-30T08:05:10;52.304694335798956;40.68142892784363;17.434898111932984
84650;PMS5003;74879;52.402;16.904;2024-01-30T08:20:10;42.03036856455048;31.278413815479425;15.639206907739712
84650;PMS5003;74879;52.402;16.904;2024-01-30T08:35:10;33.460577137633045;29.524038650852685;15.746153947121432
84650;PMS5003;74879;52.402;16.904;2024-01-30T08:50:10;34.713169245102506;28.762340231656363;20.827901547061504
84650;PMS5003;74879;52.402;16.904;2024-01-30T09:05:10;54.8288498102825;43.863079848226;21.931539924113
84650;PMS5003;74879;52.402;16.904;2024-01-30T09:20:10;42.02150385040524;42.02150385040524;24.01228791451728
84650;PMS5003;74879;52.402;16.904;2024-01-30T09:35:10;57.363890459097505;53.33835428652926;35.223441509972155
84650;PMS5003;74879;52.402;16.904;2024-01-30T09:50:10;64.79064760714743;52.64240118080729;27.333554459265322
84650;PMS5003;74879;52.402;16.904;2024-01-30T10:05:10;50.126792158518356;50.126792158518356;28.64388123343906
84650;PMS5003;74879;52.402;16.904;2024-01-30T10:20:10;49.3044153900055;44.16853878687993;24.65220769500275
84650;PMS5003;74879;52.402;16.904;2024-01-30T10:35:10;60.92608219109546;56.79550034763136;26.848781982516645
84650;PMS5003;74879;52.402;16.904;2024-01-30T10:50:10;34.21342811808342;31.10311647098493;17.625099333558126
84650;PMS5003;74879;52.402;16.904;2024-01-30T11:05:10;43.978614572657754;43.978614572657754;23.036417157106445
84650;PMS5003;74879;52.402;16.904;2024-01-30T11:20:10;30.50078304395321;30.50078304395321;16.8280182311466
84650;PMS5003;74879;52.402;16.904;2024-01-30T11:35:10;40.012106953439805;34.747356038513516;20.006053476719902
84650;PMS5003;74879;52.402;16.904;2024-01-30T11:50:10;40.08411370226466;32.70019802026854;16.877521558848276
84650;PMS5003;74879;52.402;16.904;2024-01-30T12:05:10;47.591527367400474;41.24599038508041;24.324558432226908
84650;PMS5003;74879;52.402;16.904;2024-01-30T12:20:10;29.63668314339832;29.63668314339832;14.81834157169916
84650;PMS5003;74879;52.402;16.904;2024-01-30T12:35:10;48.84603723884388;39.2892038660266;18.051796370877085
84650;PMS5003;74879;52.402;16.904;2024-01-30T12:50:10;37.31073585875072;37.31073585875072;18.12235741710749
84650;PMS5003;74879;52.402;16.904;2024-01-30T13:10:10;37.41884662451966;37.41884662451966;23.520417878269498
84650;PMS5003;74879;52.402;16.904;2024-01-30T13:25:10;40.48510781874257;34.09272237367795;20.242553909371285
84650;PMS5003;74879;52.402;16.904;2024-01-30T13:40:10;55.387678153842245;51.12708752662361;25.563543763311806
84650;PMS5003;74879;52.402;16.904;2024-01-30T14:00:10;55.32463885282209;55.32463885282209;28.726254788965313
84650;PMS5003;74879;52.402;16.904;2024-01-30T14:15:10;47.79178817185587;43.54362922324646;25.488953691656466
84650;PMS5003;74879;52.402;16.904;2024-01-30T14:30:10;45.565193034808495;40.26691477494704;19.07380173550123
84650;PMS5003;74879;52.402;16.904;2024-01-30T14:50:11;50.488329787878655;45.22912876830796;25.244164893939327
84650;PMS5003;74879;52.402;16.904;2024-01-30T15:05:11;38.47161178271625;32.232972034167666;18.715919245645743
84650;PMS5003;74879;52.402;16.904;2024-01-30T15:20:10;66.98091858366305;52.55425919641256;26.792367433465223
84650;PMS5003;74879;52.402;16.904;2024-01-30T15:35:10;49.01184593713652;43.9064453186848;24.50592296856826
84650;PMS5003;74879;52.402;16.904;2024-01-30T15:50:10;71.22566495457093;51.89298446690168;25.437737483775333
84650;PMS5003;74879;52.402;16.904;2024-01-30T16:05:10;55.727251301782424;50.66113754707493;27.35701427542046
84650;PMS5003;74879;52.402;16.904;2024-01-30T16:20:10;67.55126992653268;65.53481410783021;33.271521008590724
84650;PMS5003;74879;52.402;16.904;2024-01-30T16:35:10;84.49848647238215;82.48661774684925;39.23144014789172
84650;PMS5003;74879;52.402;16.904;2024-01-30T16:50:10;60.24750048140944;60.24750048140944;30.12375024070472
84650;PMS5003;74879;52.402;16.904;2024-01-30T17:05:10;82.04198370793404;66.03379176492251;30.0153598931466
84650;PMS5003;74879;52.402;16.904;2024-01-30T17:20:10;59.90497547629425;53.91447792866482;28.95407148020889
84650;PMS5003;74879;52.402;16.904;2024-01-30T17:35:10;62.829950073807204;58.84074689451786;31.91362543431477
84650;PMS5003;74879;52.402;16.904;2024-01-30T17:55:10;71.8859705715531;60.903391734232486;34.94456902783831
84650;PMS5003;74879;52.402;16.904;2024-01-30T18:15:10;79.78877335413088;73.80461535257106;39.89438667706544
84650;PMS5003;74879;52.402;16.904;2024-01-30T18:30:10;92.31659311922814;85.36803234681312;44.66931925123942
84650;PMS5003;74879;52.402;16.904;2024-01-30T18:50:10;82.38005750092131;79.40246506112896;45.65641741014916
84650;PMS5003;74879;52.402;16.904;2024-01-30T19:05:10;94.18110539307159;87.24144499568736;47.58624272492038
84650;PMS5003;74879;52.402;16.904;2024-01-30T19:20:10;83.47370775274123;78.50503467222092;37.76191541195437
84650;PMS5003;74879;52.402;16.904;2024-01-30T19:35:10;75.64625743487936;63.542856245298665;30.258502973951746
84650;PMS5003;74879;52.402;16.904;2024-01-30T19:50:11;76.05658040612171;67.9438784961354;36.507158594938424
84650;PMS5003;74879;52.402;16.904;2024-01-30T20:05:11;49.661180331963806;47.63419337963875;22.296856475575588
84650;PMS5003;74879;52.402;16.904;2024-01-30T20:20:11;56.70704564913683;56.70704564913683;29.366148639731573
84650;PMS5003;74879;52.402;16.904;2024-01-30T20:35:11;51.65776630771886;51.65776630771886;26.33533184315079
84650;PMS5003;74879;52.402;16.904;2024-01-30T20:50:11;68.79928787178528;57.669991304290605;27.31736430203239
84650;PMS5003;74879;52.402;16.904;2024-01-30T21:05:11;52.71290873214542;52.71290873214542;28.383873932693692
84650;PMS5003;74879;52.402;16.904;2024-01-30T21:20:11;63.681901803872904;48.51954423152221;24.259772115761105
84650;PMS5003;74879;52.402;16.904;2024-01-30T21:35:11;58.506207946583984;58.506207946583984;29.253103973291992
84650;PMS5003;74879;52.402;16.904;2024-01-30T21:50:10;47.30268841678277;41.26404734229987;20.12880358160969
84650;PMS5003;74879;52.402;16.904;2024-01-30T22:05:10;61.213443241993694;52.18195161612577;28.09797394714465
84650;PMS5003;74879;52.402;16.904;2024-01-30T22:20:10;45.97815995715477;45.97815995715477;21.9895547621175
84650;PMS5003;74879;52.402;16.904;2024-01-30T22:35:11;47.912734413271565;41.923642611612614;19.96363933886315
84650;PMS5003;74879;52.402;16.904;2024-01-30T22:50:10;49.52332927631102;46.551929519732354;20.799798296050625
84650;PMS5003;74879;52.402;16.904;2024-01-30T23:05:10;58.25596949199051;46.4072977309077;17.773007641624226
84650;PMS5003;74879;52.402;16.904;2024-01-30T23:20:11;45.29629143215698;40.372781493879046;19.69403975311173
84650;PMS5003;74879;52.402;16.904;2024-01-30T23:35:10;40.41909550181438;36.47576911139347;16.75913715928889
84650;PMS5003;74879;52.402;16.904;2024-01-30T23:50:10;39.46822034504393;37.494809327791735;16.77399364664367
